KSAF/SAF METAR and TAF weather

Enter ICAO airport designator
Station Type Date Time Source
KSAF METAR 2022/06/28 14:53 UTC NOAA

KSAF 281453Z 35007KT 10SM CLR 17/12 A3046 RMK AO2 SLP234 T01670122 53004


Station Type Date Time Source
KSAF Decoded METAR 2022/06/28 14:53 UTC NOAA

SANTA FE COUNTY MUNICIPAL, NM, United States (KSAF) 35-37N 106-05W 1930M
Jun 28, 2022 - 10:53 AM EDT / 2022.06.28 1453 UTC
Wind: from the N (350 degrees) at 8 MPH (7 KT):0
Visibility: 10 mile(s):0
Sky conditions: clear
Temperature: 62.1 F (16.7 C)
Dew Point: 54.0 F (12.2 C)
Relative Humidity: 74%
Pressure (altimeter): 30.46 in. Hg (1031 hPa)
Pressure tendency: 0.01 inches (0.4 hPa) higher than three hours ago
ob: KSAF 281453Z 35007KT 10SM CLR 17/12 A3046 RMK AO2 SLP234 T01670122 53004
cycle: 15

Station Type Date Time Source
KSAF TAF 2022/06/28 12:30 UTC NOAA

TAF KSAF 281128Z 2812/2912 01007KT P6SM FEW025
FM281500 VRB06KT P6SM FEW060
FM282200 15009KT P6SM SCT070
FM290200 12007KT P6SM FEW080

Example: see airport list